createdAt,value
2023-01-21T00:01:21.452Z,14.43
2023-01-21T00:03:51.131Z,14.03
2023-01-21T00:06:19.429Z,17.33
2023-01-21T00:08:47.803Z,14.63
2023-01-21T00:11:17.412Z,14.50
2023-01-21T00:13:46.298Z,17.20
2023-01-21T00:16:15.589Z,16.40
2023-01-21T00:18:44.125Z,17.27
2023-01-21T00:21:14.176Z,17.80
2023-01-21T00:23:42.913Z,16.40
2023-01-21T00:26:13.070Z,13.33
2023-01-21T00:28:44.026Z,14.03
2023-01-21T00:31:12.993Z,17.07
2023-01-21T00:33:41.441Z,16.07
2023-01-21T00:36:11.962Z,20.80
2023-01-21T00:38:41.548Z,16.57
2023-01-21T00:41:12.655Z,19.30
2023-01-21T00:43:41.637Z,18.47
2023-01-21T00:46:10.175Z,18.27
2023-01-21T00:48:38.707Z,15.03
2023-01-21T00:51:07.413Z,18.40
2023-01-21T00:53:38.368Z,17.00
2023-01-21T00:56:10.159Z,20.33
2023-01-21T00:58:39.137Z,20.53
2023-01-21T01:01:09.333Z,17.40
2023-01-21T01:03:38.717Z,18.60
2023-01-21T01:06:09.064Z,21.03
2023-01-21T01:08:37.361Z,19.73
2023-01-21T01:11:07.432Z,15.53
2023-01-21T01:13:36.923Z,21.80
2023-01-21T01:16:06.028Z,18.90
2023-01-21T01:18:37.218Z,14.63
2023-01-21T01:21:06.386Z,14.00
2023-01-21T01:23:34.633Z,12.77
2023-01-21T01:26:06.291Z,16.90
2023-01-21T01:28:36.446Z,13.50
2023-01-21T01:31:06.190Z,11.33
2023-01-21T01:33:34.603Z,15.33
2023-01-21T01:36:03.323Z,13.83
2023-01-21T01:38:32.103Z,16.77
2023-01-21T01:41:00.774Z,13.67
2023-01-21T01:43:51.783Z,13.17
2023-01-21T01:46:20.000Z,15.67
2023-01-21T01:48:51.799Z,15.83
2023-01-21T01:51:23.758Z,11.83
2023-01-21T01:53:53.533Z,13.03
2023-01-21T01:56:22.939Z,13.27
2023-01-21T01:58:54.420Z,15.67
2023-01-21T02:01:23.313Z,13.50
2023-01-21T02:03:59.634Z,17.17
2023-01-21T02:06:28.842Z,12.43
2023-01-21T02:08:58.192Z,12.20
2023-01-21T02:11:26.301Z,9.53
2023-01-21T02:13:59.033Z,12.20
2023-01-21T02:16:51.339Z,13.50
2023-01-21T02:19:57.461Z,10.27
2023-01-21T02:22:31.716Z,15.13
2023-01-21T02:25:44.806Z,13.13
2023-01-21T02:28:38.345Z,12.60
2023-01-21T02:31:31.464Z,9.53
2023-01-21T02:34:15.655Z,13.00
2023-01-21T02:37:05.503Z,11.83
2023-01-21T02:40:01.539Z,11.97
2023-01-21T02:42:36.248Z,8.30
2023-01-21T02:45:15.261Z,12.13
2023-01-21T02:47:53.873Z,11.33
2023-01-21T02:50:28.253Z,12.10
2023-01-21T02:52:57.818Z,13.23
2023-01-21T02:55:30.417Z,9.70
2023-01-21T02:58:02.931Z,14.20
2023-01-21T03:00:38.673Z,12.90
2023-01-21T03:03:23.253Z,11.37
2023-01-21T03:06:21.773Z,12.73
2023-01-21T03:08:55.095Z,12.40
2023-01-21T03:11:24.951Z,11.47
2023-01-21T03:14:17.267Z,13.07
2023-01-21T03:17:00.822Z,14.77
2023-01-21T03:19:38.420Z,11.80
2023-01-21T03:22:12.466Z,11.73
2023-01-21T03:24:43.529Z,14.77
2023-01-21T03:27:16.325Z,11.60
2023-01-21T03:29:45.817Z,11.73
2023-01-21T03:32:17.098Z,12.60
2023-01-21T03:34:50.772Z,21.50
2023-01-21T03:37:28.901Z,13.87
2023-01-21T03:40:04.473Z,18.17
2023-01-21T03:42:33.122Z,15.27
2023-01-21T03:45:02.438Z,14.10
2023-01-21T03:47:34.392Z,18.77
2023-01-21T03:50:06.755Z,18.30
2023-01-21T03:52:37.400Z,21.90
2023-01-21T03:55:06.634Z,17.33
2023-01-21T03:57:34.887Z,26.07
2023-01-21T04:00:03.429Z,23.67
2023-01-21T04:02:31.789Z,21.53
2023-01-21T04:05:00.120Z,24.10
2023-01-21T04:07:28.782Z,25.57
2023-01-21T04:09:58.675Z,22.83
2023-01-21T04:12:26.892Z,27.80
2023-01-21T04:14:55.034Z,30.80
2023-01-21T04:17:23.307Z,24.57
2023-01-21T04:19:51.591Z,29.77
2023-01-21T04:22:20.678Z,25.27
2023-01-21T04:24:49.721Z,28.07
2023-01-21T04:27:19.262Z,24.53
2023-01-21T04:29:47.390Z,28.37
2023-01-21T04:32:15.873Z,22.60
2023-01-21T04:34:44.111Z,26.37
2023-01-21T04:37:12.750Z,26.80
2023-01-21T04:39:41.377Z,27.77
2023-01-21T04:42:09.586Z,23.40
2023-01-21T04:44:39.405Z,26.93
2023-01-21T04:47:07.770Z,35.30
2023-01-21T04:49:35.908Z,31.10
2023-01-21T04:52:04.436Z,32.60
2023-01-21T04:54:33.061Z,33.60
2023-01-21T04:57:01.221Z,29.63
2023-01-21T04:59:29.425Z,31.97
2023-01-21T05:01:59.402Z,28.23
2023-01-21T05:04:27.718Z,31.20
2023-01-21T05:06:56.640Z,34.03
2023-01-21T05:09:25.046Z,35.00
2023-01-21T05:11:53.287Z,34.13
2023-01-21T05:14:21.771Z,32.13
2023-01-21T05:16:50.182Z,33.60
2023-01-21T05:19:19.698Z,35.40
2023-01-21T05:21:47.847Z,33.80
2023-01-21T05:24:16.554Z,36.33
2023-01-21T05:26:44.765Z,33.47
2023-01-21T05:29:13.338Z,33.13
2023-01-21T05:31:41.799Z,30.23
2023-01-21T05:34:10.051Z,31.67
2023-01-21T05:36:39.885Z,33.23
2023-01-21T05:39:08.707Z,28.97
2023-01-21T05:41:36.824Z,28.27
2023-01-21T05:44:05.041Z,25.30
2023-01-21T05:46:33.260Z,24.67
2023-01-21T05:49:01.536Z,30.63
2023-01-21T05:51:29.728Z,37.30
2023-01-21T05:53:59.753Z,35.20
2023-01-21T05:56:27.982Z,32.60
2023-01-21T05:58:56.485Z,25.63
2023-01-21T06:01:25.072Z,28.90
2023-01-21T06:03:53.684Z,29.83
2023-01-21T06:06:22.418Z,21.63
2023-01-21T06:08:50.580Z,23.50
2023-01-21T06:11:20.690Z,23.60
2023-01-21T06:13:49.221Z,27.87
2023-01-21T06:16:17.410Z,24.57
2023-01-21T06:18:45.695Z,25.70
2023-01-21T06:21:14.130Z,17.03
2023-01-21T06:23:42.964Z,21.13
2023-01-21T06:26:11.582Z,25.43
2023-01-21T06:28:41.134Z,18.53
2023-01-21T06:31:09.361Z,21.00
2023-01-21T06:33:38.015Z,24.03
2023-01-21T06:36:06.898Z,18.93
2023-01-21T06:38:36.183Z,21.23
2023-01-21T06:41:05.025Z,19.50
2023-01-21T06:43:33.555Z,17.63
2023-01-21T06:46:03.235Z,18.07
2023-01-21T06:48:31.728Z,16.87
2023-01-21T06:51:01.668Z,15.57
2023-01-21T06:53:29.906Z,16.40
2023-01-21T06:55:58.226Z,17.87
2023-01-21T06:58:26.463Z,17.60
2023-01-21T07:00:57.693Z,18.03
2023-01-21T07:03:27.652Z,16.03
2023-01-21T07:05:55.768Z,18.83
2023-01-21T07:08:24.094Z,23.33
2023-01-21T07:10:52.877Z,17.53
2023-01-21T07:13:21.054Z,20.17
2023-01-21T07:15:49.193Z,21.47
2023-01-21T07:18:17.972Z,18.03
2023-01-21T07:20:47.599Z,20.50
2023-01-21T07:23:15.740Z,23.97
2023-01-21T07:25:44.442Z,23.03
2023-01-21T07:28:12.817Z,30.73
2023-01-21T07:30:40.949Z,21.00
2023-01-21T07:33:10.663Z,20.17
2023-01-21T07:35:39.144Z,22.80
2023-01-21T07:38:08.752Z,23.17
2023-01-21T07:40:37.326Z,23.23
2023-01-21T07:43:06.046Z,21.87
2023-01-21T07:45:34.235Z,20.20
2023-01-21T07:48:02.755Z,19.57
2023-01-21T07:50:30.956Z,22.27
2023-01-21T07:52:59.671Z,18.27
2023-01-21T07:55:30.814Z,17.60
2023-01-21T07:57:59.714Z,15.80
2023-01-21T08:00:29.233Z,20.87
2023-01-21T08:02:58.989Z,19.00
2023-01-21T08:05:28.298Z,20.47
2023-01-21T08:07:59.404Z,18.93
2023-01-21T08:10:28.966Z,22.33
2023-01-21T08:12:57.185Z,19.57
2023-01-21T08:15:25.787Z,17.83
2023-01-21T08:17:53.984Z,17.80
2023-01-21T08:20:22.314Z,18.33
2023-01-21T08:22:51.023Z,18.53
2023-01-21T08:25:19.578Z,23.80
2023-01-21T08:27:49.129Z,21.57
2023-01-21T08:30:18.411Z,20.83
2023-01-21T08:32:46.640Z,21.47
2023-01-21T08:35:14.995Z,21.07
2023-01-21T08:37:43.878Z,20.30
2023-01-21T08:40:13.203Z,20.33
2023-01-21T08:42:41.291Z,21.67
2023-01-21T08:45:15.108Z,25.80
2023-01-21T08:47:43.511Z,18.90
2023-01-21T08:50:12.592Z,19.13
2023-01-21T08:52:41.398Z,20.47
2023-01-21T08:55:10.535Z,18.47
2023-01-21T08:57:39.078Z,19.17
2023-01-21T09:00:08.525Z,15.10
2023-01-21T09:02:38.087Z,15.30
2023-01-21T09:05:07.652Z,15.17
2023-01-21T09:07:36.106Z,13.90
2023-01-21T09:10:04.629Z,18.63
2023-01-21T09:12:33.111Z,15.80
2023-01-21T09:15:01.458Z,14.97
2023-01-21T09:17:29.629Z,21.23
2023-01-21T09:19:59.583Z,20.07
2023-01-21T09:22:28.878Z,21.37
2023-01-21T09:24:57.043Z,15.63
2023-01-21T09:27:27.580Z,14.43
2023-01-21T09:29:56.534Z,18.53
2023-01-21T09:32:24.672Z,31.27
2023-01-21T09:34:52.983Z,16.97
2023-01-21T09:37:22.796Z,20.93
2023-01-21T09:39:50.980Z,20.93
2023-01-21T09:42:25.240Z,17.67
2023-01-21T09:44:57.551Z,16.70
2023-01-21T09:47:30.669Z,19.03
2023-01-21T09:50:03.819Z,13.27
2023-01-21T09:52:39.446Z,20.60
2023-01-21T09:55:13.611Z,20.33
2023-01-21T09:57:54.913Z,20.80
2023-01-21T10:00:34.028Z,18.37
2023-01-21T10:03:13.073Z,15.87
2023-01-21T10:06:00.834Z,14.03
2023-01-21T10:08:35.758Z,14.17
2023-01-21T10:11:22.184Z,16.57
2023-01-21T10:14:18.190Z,17.37
2023-01-21T10:16:54.911Z,14.63
2023-01-21T10:19:28.878Z,18.83
2023-01-21T10:22:03.286Z,16.70
2023-01-21T10:24:39.885Z,19.03
2023-01-21T10:27:15.778Z,15.93
2023-01-21T10:29:45.101Z,15.60
2023-01-21T10:32:17.072Z,15.30
2023-01-21T10:34:51.864Z,15.63
2023-01-21T10:37:27.046Z,16.50
2023-01-21T10:40:05.549Z,16.40
2023-01-21T10:42:49.241Z,13.93
2023-01-21T10:45:31.053Z,16.90
2023-01-21T10:48:05.698Z,18.60
2023-01-21T10:50:42.045Z,18.97
2023-01-21T10:53:20.742Z,17.90
2023-01-21T10:56:09.497Z,16.43
2023-01-21T10:58:43.185Z,18.23
2023-01-21T11:01:20.198Z,16.73
2023-01-21T11:03:51.310Z,15.53
2023-01-21T11:06:21.499Z,19.00
2023-01-21T11:08:53.685Z,14.80
2023-01-21T11:11:30.435Z,18.87
2023-01-21T11:13:59.277Z,19.77
2023-01-21T11:16:36.919Z,21.03
2023-01-21T11:19:08.390Z,18.73
2023-01-21T11:21:36.615Z,13.97
2023-01-21T11:24:20.581Z,17.37
2023-01-21T11:26:53.989Z,12.63
2023-01-21T11:29:23.827Z,15.10
2023-01-21T11:32:01.088Z,13.33
2023-01-21T11:34:29.989Z,12.27
2023-01-21T11:37:00.554Z,18.40
2023-01-21T11:39:30.805Z,12.13
2023-01-21T11:42:06.224Z,14.33
2023-01-21T11:44:35.361Z,13.13
2023-01-21T11:47:03.598Z,10.83
2023-01-21T11:49:33.673Z,13.07
2023-01-21T11:52:16.745Z,13.83
2023-01-21T11:54:45.336Z,12.07
2023-01-21T11:57:29.117Z,21.83
2023-01-21T12:00:01.234Z,20.27
2023-01-21T12:02:32.996Z,16.10
2023-01-21T12:05:05.707Z,13.63
2023-01-21T12:07:37.025Z,13.90
2023-01-21T12:10:16.886Z,16.33
2023-01-21T12:13:03.223Z,14.90
2023-01-21T12:15:46.124Z,18.07
2023-01-21T12:18:28.663Z,15.87
2023-01-21T12:21:04.921Z,20.13
2023-01-21T12:23:49.385Z,25.10
2023-01-21T12:26:36.567Z,13.90
2023-01-21T12:29:22.384Z,20.37
2023-01-21T12:31:55.791Z,15.80
2023-01-21T12:34:30.455Z,17.47
2023-01-21T12:37:02.922Z,17.40
2023-01-21T12:39:34.837Z,20.03
2023-01-21T12:42:08.812Z,16.23
2023-01-21T12:44:44.005Z,15.77
2023-01-21T12:47:20.493Z,17.03
2023-01-21T12:50:00.345Z,16.33
2023-01-21T12:52:35.920Z,19.03
2023-01-21T12:55:15.004Z,19.20
2023-01-21T12:57:49.489Z,19.33
2023-01-21T13:00:23.515Z,18.33
2023-01-21T13:02:58.257Z,19.97
2023-01-21T13:05:34.212Z,18.07
2023-01-21T13:08:13.822Z,16.73
2023-01-21T13:10:46.670Z,18.13
2023-01-21T13:13:20.976Z,24.90
2023-01-21T13:15:55.286Z,20.40
2023-01-21T13:18:29.254Z,18.57
2023-01-21T13:21:03.330Z,19.37
2023-01-21T13:23:37.141Z,16.13
2023-01-21T13:26:14.293Z,20.00
2023-01-21T13:28:47.920Z,18.73
2023-01-21T13:31:22.190Z,14.80
2023-01-21T13:33:57.454Z,17.23
2023-01-21T13:36:35.777Z,15.60
2023-01-21T13:39:09.414Z,17.03
2023-01-21T13:41:50.921Z,14.57
2023-01-21T13:44:55.715Z,16.80
2023-01-21T13:47:38.344Z,19.03
2023-01-21T13:50:21.302Z,11.60
2023-01-21T13:53:04.249Z,12.57
2023-01-21T13:55:45.857Z,15.00
2023-01-21T13:58:16.690Z,14.00
2023-01-21T14:00:47.534Z,18.33
2023-01-21T14:03:28.899Z,21.30
2023-01-21T14:06:02.755Z,24.03
2023-01-21T14:08:37.313Z,16.03
2023-01-21T14:11:11.421Z,16.13
2023-01-21T14:14:05.971Z,15.80
2023-01-21T14:17:08.394Z,11.57
2023-01-21T14:20:15.815Z,13.43
2023-01-21T14:23:05.317Z,13.60
2023-01-21T14:25:40.027Z,17.00
2023-01-21T14:28:18.028Z,15.83
2023-01-21T14:30:51.036Z,18.27
2023-01-21T14:33:22.654Z,19.60
2023-01-21T14:35:57.930Z,17.37
2023-01-21T14:38:34.585Z,16.27
2023-01-21T14:41:08.433Z,15.87
2023-01-21T14:43:51.707Z,14.47
2023-01-21T14:46:35.204Z,16.40
2023-01-21T14:49:08.021Z,17.17
2023-01-21T14:51:39.804Z,15.93
2023-01-21T14:54:13.353Z,17.40
2023-01-21T14:56:42.051Z,18.23
2023-01-21T14:59:34.647Z,18.80
2023-01-21T15:02:05.479Z,16.77
2023-01-21T15:04:40.199Z,18.43
2023-01-21T15:07:17.958Z,26.67
2023-01-21T15:09:54.042Z,18.67
2023-01-21T15:12:26.715Z,21.30
2023-01-21T15:14:59.620Z,18.23
2023-01-21T15:18:03.747Z,18.67
2023-01-21T15:20:47.738Z,22.80
2023-01-21T15:23:29.034Z,17.67
2023-01-21T15:26:19.145Z,15.93
2023-01-21T15:28:48.644Z,17.57
2023-01-21T15:31:41.898Z,15.93
2023-01-21T15:34:15.863Z,18.37
2023-01-21T15:36:50.474Z,15.83
2023-01-21T15:39:26.983Z,20.40
2023-01-21T15:42:10.880Z,18.40
2023-01-21T15:45:00.512Z,17.90
2023-01-21T15:47:55.288Z,19.10
2023-01-21T15:50:28.127Z,24.53
2023-01-21T15:53:11.934Z,18.77
2023-01-21T15:56:12.471Z,15.27
2023-01-21T15:58:53.694Z,16.13
2023-01-21T16:01:31.286Z,25.90
2023-01-21T16:04:26.161Z,20.50
2023-01-21T16:07:14.090Z,19.67
2023-01-21T16:09:54.790Z,17.50
2023-01-21T16:12:30.842Z,17.30
2023-01-21T16:15:04.993Z,18.13
2023-01-21T16:17:50.454Z,18.37
2023-01-21T16:20:18.731Z,20.40
2023-01-21T16:22:52.107Z,16.57
2023-01-21T16:25:22.936Z,14.50
2023-01-21T16:27:54.711Z,19.07
2023-01-21T16:30:26.702Z,16.60
2023-01-21T16:33:11.937Z,38.20
2023-01-21T16:35:45.378Z,18.13
2023-01-21T16:38:18.667Z,20.40
2023-01-21T16:40:48.683Z,21.13
2023-01-21T16:43:27.016Z,16.40
2023-01-21T16:45:58.127Z,17.50
2023-01-21T16:48:29.264Z,17.47
2023-01-21T16:50:57.608Z,18.60
2023-01-21T16:53:26.652Z,22.73
2023-01-21T16:55:57.022Z,20.73
2023-01-21T16:58:30.293Z,21.80
2023-01-21T17:01:06.166Z,20.53
2023-01-21T17:03:34.596Z,24.37
2023-01-21T17:06:07.743Z,19.57
2023-01-21T17:08:36.312Z,20.20
2023-01-21T17:11:09.127Z,17.67
2023-01-21T17:13:42.145Z,18.83
2023-01-21T17:16:25.873Z,20.13
2023-01-21T17:18:57.722Z,14.70
2023-01-21T17:21:33.591Z,18.10
2023-01-21T17:24:05.147Z,19.13
2023-01-21T17:26:38.647Z,19.13
2023-01-21T17:29:18.747Z,17.27
2023-01-21T17:31:55.336Z,18.17
2023-01-21T17:34:25.390Z,19.97
2023-01-21T17:36:55.133Z,21.40
2023-01-21T17:40:00.720Z,23.93
2023-01-21T17:42:41.568Z,16.87
2023-01-21T17:45:22.023Z,24.13
2023-01-21T17:48:08.771Z,18.23
2023-01-21T17:50:46.547Z,17.90
2023-01-21T17:53:22.365Z,23.37
2023-01-21T17:55:59.071Z,16.60
2023-01-21T17:58:45.780Z,26.47
2023-01-21T18:01:16.770Z,20.50
2023-01-21T18:03:45.295Z,16.50
2023-01-21T18:06:21.869Z,17.80
2023-01-21T18:08:52.798Z,21.37
2023-01-21T18:11:22.583Z,16.27
2023-01-21T18:13:52.536Z,12.97
2023-01-21T18:16:22.366Z,16.73
2023-01-21T18:18:51.173Z,24.10
2023-01-21T18:21:21.135Z,26.80
2023-01-21T18:23:50.073Z,18.63
2023-01-21T18:26:28.622Z,14.57
2023-01-21T18:28:56.824Z,19.43
2023-01-21T18:31:26.869Z,21.37
2023-01-21T18:33:55.293Z,17.70
2023-01-21T18:36:23.537Z,23.43
2023-01-21T18:38:51.767Z,23.33
2023-01-21T18:41:20.401Z,24.17
2023-01-21T18:43:48.529Z,23.30
2023-01-21T18:46:19.720Z,20.07
2023-01-21T18:48:49.643Z,23.63
2023-01-21T18:51:17.850Z,23.07
2023-01-21T18:53:46.109Z,24.70
2023-01-21T18:56:15.557Z,20.37
2023-01-21T18:58:43.898Z,26.53
2023-01-21T19:01:22.656Z,26.00
2023-01-21T19:03:55.007Z,21.40
2023-01-21T19:06:25.742Z,27.03
2023-01-21T19:08:55.202Z,23.83
2023-01-21T19:11:23.596Z,26.13
2023-01-21T19:13:51.953Z,28.23
2023-01-21T19:16:21.790Z,36.93
2023-01-21T19:18:50.146Z,28.30
2023-01-21T19:21:19.781Z,24.47
2023-01-21T19:23:48.048Z,21.80
2023-01-21T19:26:16.797Z,27.80
2023-01-21T19:28:45.135Z,28.07
2023-01-21T19:31:13.437Z,25.40
2023-01-21T19:33:45.453Z,23.37
2023-01-21T19:36:16.475Z,24.60
2023-01-21T19:38:51.471Z,26.60
2023-01-21T19:41:19.902Z,28.97
2023-01-21T19:43:48.286Z,26.63
2023-01-21T19:46:16.560Z,18.13
2023-01-21T19:48:44.998Z,23.70
2023-01-21T19:51:14.579Z,22.63
2023-01-21T19:53:42.646Z,24.10
2023-01-21T19:56:17.433Z,31.63
2023-01-21T19:58:45.639Z,22.13
2023-01-21T20:01:13.862Z,27.50
2023-01-21T20:03:54.658Z,26.70
2023-01-21T20:06:28.800Z,24.10
2023-01-21T20:08:57.501Z,25.13
2023-01-21T20:11:27.033Z,43.50
2023-01-21T20:13:55.378Z,28.00
2023-01-21T20:16:26.296Z,26.47
2023-01-21T20:18:56.367Z,23.83
2023-01-21T20:21:24.698Z,26.00
2023-01-21T20:23:52.870Z,25.27
2023-01-21T20:26:25.808Z,27.17
2023-01-21T20:28:55.691Z,28.73
2023-01-21T20:31:23.986Z,30.97
2023-01-21T20:33:52.715Z,30.80
2023-01-21T20:36:24.170Z,32.87
2023-01-21T20:38:53.939Z,29.67
2023-01-21T20:41:22.780Z,36.17
2023-01-21T20:43:50.980Z,30.03
2023-01-21T20:46:23.419Z,30.27
2023-01-21T20:48:51.939Z,36.03
2023-01-21T20:51:21.030Z,26.30
2023-01-21T20:53:49.456Z,28.60
2023-01-21T20:56:20.474Z,27.97
2023-01-21T20:58:49.261Z,26.97
2023-01-21T21:01:19.151Z,32.53
2023-01-21T21:03:49.271Z,23.20
2023-01-21T21:06:19.177Z,31.07
2023-01-21T21:08:48.254Z,25.03
2023-01-21T21:11:17.534Z,26.87
2023-01-21T21:13:48.397Z,29.30
2023-01-21T21:16:20.730Z,23.33
2023-01-21T21:18:51.228Z,32.00
2023-01-21T21:21:23.385Z,25.27
2023-01-21T21:23:52.401Z,34.00
2023-01-21T21:26:23.630Z,28.37
2023-01-21T21:28:54.706Z,25.73
2023-01-21T21:31:24.111Z,26.60
2023-01-21T21:33:53.946Z,26.33
2023-01-21T21:36:24.996Z,25.87
2023-01-21T21:38:55.859Z,30.13
2023-01-21T21:41:43.744Z,30.77
2023-01-21T21:44:13.068Z,34.73
2023-01-21T21:46:59.791Z,25.73
2023-01-21T21:49:30.061Z,33.90
2023-01-21T21:52:00.279Z,26.43
2023-01-21T21:54:28.915Z,26.53
2023-01-21T21:56:57.272Z,27.33
2023-01-21T21:59:25.871Z,27.07
2023-01-21T22:01:54.433Z,26.80
2023-01-21T22:04:23.672Z,28.17
2023-01-21T22:06:53.215Z,29.77
2023-01-21T22:09:21.478Z,33.33
2023-01-21T22:11:49.615Z,33.50
2023-01-21T22:14:18.075Z,34.13
2023-01-21T22:16:49.107Z,25.93
2023-01-21T22:19:17.526Z,31.83
2023-01-21T22:21:45.906Z,25.57
2023-01-21T22:24:15.744Z,25.70
2023-01-21T22:26:44.002Z,24.80
2023-01-21T22:29:12.938Z,21.77
2023-01-21T22:31:41.174Z,22.07
2023-01-21T22:34:10.909Z,29.33
2023-01-21T22:36:39.090Z,25.40
2023-01-21T22:39:07.766Z,27.17
2023-01-21T22:41:37.511Z,22.30
2023-01-21T22:44:06.018Z,29.00
2023-01-21T22:46:34.809Z,26.17
2023-01-21T22:49:03.012Z,25.07
2023-01-21T22:51:31.258Z,24.83
2023-01-21T22:54:00.490Z,28.70
2023-01-21T22:56:45.311Z,23.60
2023-01-21T22:59:18.740Z,21.57
2023-01-21T23:01:48.902Z,27.57
2023-01-21T23:04:18.433Z,26.47
2023-01-21T23:06:48.751Z,27.47
2023-01-21T23:09:17.189Z,26.93
2023-01-21T23:11:46.020Z,26.20
2023-01-21T23:14:14.694Z,30.17
2023-01-21T23:16:44.242Z,24.73
2023-01-21T23:19:13.732Z,22.87
2023-01-21T23:21:41.897Z,26.20
2023-01-21T23:24:10.333Z,26.27
2023-01-21T23:26:38.707Z,28.40
2023-01-21T23:29:07.230Z,27.03
2023-01-21T23:31:35.621Z,25.27
2023-01-21T23:34:05.174Z,31.43
2023-01-21T23:36:33.807Z,25.47
2023-01-21T23:39:01.963Z,27.17
2023-01-21T23:41:30.162Z,27.10
2023-01-21T23:44:00.828Z,40.20
2023-01-21T23:46:29.166Z,25.93
2023-01-21T23:48:57.800Z,28.93
2023-01-21T23:51:27.426Z,42.13
2023-01-21T23:53:58.043Z,31.27
2023-01-21T23:56:27.140Z,28.57
2023-01-21T23:58:55.368Z,31.33
